createdAt,value
2017-06-23T00:02:00.337Z,99842.52
2017-06-23T00:04:30.156Z,99847.84
2017-06-23T00:06:59.909Z,99840.34
2017-06-23T00:09:29.351Z,99839.73
2017-06-23T00:11:59.117Z,99841.00
2017-06-23T00:14:28.858Z,99840.28
2017-06-23T00:16:59.412Z,99829.70
2017-06-23T00:19:29.161Z,99826.75
2017-06-23T00:21:58.901Z,99824.45
2017-06-23T00:24:28.622Z,99827.24
2017-06-23T00:26:58.375Z,99822.92
2017-06-23T00:29:28.113Z,99830.89
2017-06-23T00:31:58.182Z,99837.83
2017-06-23T00:34:27.889Z,99831.39
2017-06-23T00:36:57.279Z,99835.72
2017-06-23T00:39:27.089Z,99829.62
2017-06-23T00:41:56.818Z,99824.92
2017-06-23T00:44:26.630Z,99826.11
2017-06-23T00:46:56.355Z,99822.22
2017-06-23T00:49:26.529Z,99827.88
2017-06-23T00:51:56.254Z,99825.06
2017-06-23T00:54:26.080Z,99822.20
2017-06-23T00:56:55.808Z,99820.99
2017-06-23T00:59:25.548Z,99821.27
2017-06-23T01:01:55.667Z,99826.89
2017-06-23T01:04:25.412Z,99822.84
2017-06-23T01:06:55.162Z,99820.74
2017-06-23T01:09:24.876Z,99822.28
2017-06-23T01:11:54.681Z,99817.17
2017-06-23T01:14:24.413Z,99821.80
2017-06-23T01:16:54.153Z,99811.28
2017-06-23T01:19:23.893Z,99814.86
2017-06-23T01:21:53.619Z,99811.19
2017-06-23T01:24:23.362Z,99798.86
2017-06-23T01:26:53.083Z,99804.48
2017-06-23T01:29:22.833Z,99799.28
2017-06-23T01:31:52.557Z,99791.52
2017-06-23T01:34:22.270Z,99789.53
2017-06-23T01:36:52.096Z,99790.30
2017-06-23T01:39:21.813Z,99790.30
2017-06-23T01:41:51.562Z,99794.02
2017-06-23T01:44:21.281Z,99791.16
2017-06-23T01:46:50.428Z,99798.30
2017-06-23T01:49:20.170Z,99809.11
2017-06-23T01:51:49.985Z,99804.91
2017-06-23T01:54:19.715Z,99811.48
2017-06-23T01:56:49.438Z,99808.90
2017-06-23T01:59:19.190Z,99823.97
2017-06-23T02:01:48.901Z,99824.98
2017-06-23T02:04:18.745Z,99831.58
2017-06-23T02:06:48.483Z,99834.52
2017-06-23T02:09:18.340Z,99837.39
2017-06-23T02:11:48.046Z,99842.94
2017-06-23T02:14:17.771Z,99841.86
2017-06-23T02:16:47.627Z,99844.23
2017-06-23T02:19:17.341Z,99842.67
2017-06-23T02:21:47.076Z,99847.34
2017-06-23T02:24:16.795Z,99852.22
2017-06-23T02:26:46.586Z,99845.23
2017-06-23T02:29:16.332Z,99851.37
2017-06-23T02:31:46.059Z,99862.75
2017-06-23T02:34:15.801Z,99861.99
2017-06-23T02:36:48.974Z,99857.58
2017-06-23T02:39:18.746Z,99869.61
2017-06-23T02:41:48.493Z,99880.64
2017-06-23T02:44:18.259Z,99879.95
2017-06-23T02:46:48.079Z,99879.55
2017-06-23T02:49:17.785Z,99882.16
2017-06-23T02:51:47.491Z,99882.85
2017-06-23T02:54:17.233Z,99893.07
2017-06-23T02:56:46.973Z,99889.32
2017-06-23T02:59:16.677Z,99890.71
2017-06-23T03:01:46.104Z,99900.30
2017-06-23T03:04:15.837Z,99897.73
2017-06-23T03:06:45.568Z,99898.21
2017-06-23T03:09:15.668Z,99899.42
2017-06-23T03:11:45.388Z,99906.05
2017-06-23T03:14:15.137Z,99913.81
2017-06-23T03:16:44.869Z,99911.80
2017-06-23T03:19:14.642Z,99916.23
2017-06-23T03:21:44.365Z,99924.31
2017-06-23T03:24:14.444Z,99923.62
2017-06-23T03:26:44.232Z,99918.93
2017-06-23T03:29:13.945Z,99920.41
2017-06-23T03:31:43.682Z,99923.41
2017-06-23T03:34:13.395Z,99928.00
2017-06-23T03:36:43.172Z,99933.27
2017-06-23T03:39:12.903Z,99936.55
2017-06-23T03:41:42.610Z,99935.38
2017-06-23T03:44:12.343Z,99933.46
2017-06-23T03:46:42.064Z,99939.22
2017-06-23T03:49:11.481Z,99942.11
2017-06-23T03:51:41.404Z,99941.73
2017-06-23T03:54:11.145Z,99948.63
2017-06-23T03:56:40.946Z,99952.04
2017-06-23T03:59:10.685Z,99956.16
2017-06-23T04:01:40.404Z,99951.19
2017-06-23T04:04:10.141Z,99955.13
2017-06-23T04:06:39.864Z,99956.40
2017-06-23T04:09:09.575Z,99951.71
2017-06-23T04:11:39.281Z,99947.87
2017-06-23T04:14:08.998Z,99952.08
2017-06-23T04:16:38.685Z,99952.59
2017-06-23T04:19:08.419Z,99956.04
2017-06-23T04:21:38.128Z,99962.06
2017-06-23T04:24:07.869Z,99965.09
2017-06-23T04:26:38.065Z,99970.71
2017-06-23T04:29:07.853Z,99974.61
2017-06-23T04:31:37.580Z,99972.50
2017-06-23T04:34:07.360Z,99978.03
2017-06-23T04:36:37.080Z,99976.03
2017-06-23T04:39:06.829Z,99978.84
2017-06-23T04:41:36.626Z,99983.63
2017-06-23T04:44:06.322Z,99982.78
2017-06-23T04:46:36.103Z,99986.90
2017-06-23T04:49:05.869Z,99983.96
2017-06-23T04:51:35.622Z,99990.13
2017-06-23T04:54:05.453Z,99995.77
2017-06-23T04:56:35.576Z,100000.03
2017-06-23T04:59:05.372Z,100007.59
2017-06-23T05:01:35.225Z,100002.78
2017-06-23T05:04:04.966Z,100016.94
2017-06-23T05:06:34.676Z,100019.69
2017-06-23T05:09:03.674Z,100018.03
2017-06-23T05:11:33.457Z,100022.94
2017-06-23T05:14:03.200Z,100020.15
2017-06-23T05:16:32.962Z,100023.03
2017-06-23T05:19:02.686Z,100025.20
2017-06-23T05:21:32.539Z,100025.09
2017-06-23T05:24:02.325Z,100031.03
2017-06-23T05:26:32.077Z,100030.75
2017-06-23T05:29:01.844Z,100045.38
2017-06-23T05:31:31.574Z,100042.61
2017-06-23T05:34:01.317Z,100053.58
2017-06-23T05:36:31.048Z,100052.86
2017-06-23T05:39:00.852Z,100050.54
2017-06-23T05:41:30.954Z,100063.27
2017-06-23T05:44:00.914Z,100066.75
2017-06-23T05:46:32.999Z,100072.02
2017-06-23T05:49:04.739Z,100073.83
2017-06-23T05:51:34.469Z,100083.05
2017-06-23T05:54:04.228Z,100079.55
2017-06-23T05:56:33.955Z,100081.98
2017-06-23T05:59:03.702Z,100083.77
2017-06-23T06:01:33.454Z,100088.83
2017-06-23T06:04:03.210Z,100100.91
2017-06-23T06:06:32.978Z,100102.75
2017-06-23T06:09:02.740Z,100104.97
2017-06-23T06:11:32.477Z,100107.73
2017-06-23T06:14:02.225Z,100110.30
2017-06-23T06:16:31.973Z,100111.51
2017-06-23T06:19:01.719Z,100112.36
2017-06-23T06:21:31.432Z,100118.92
2017-06-23T06:24:01.253Z,100126.70
2017-06-23T06:26:30.994Z,100130.40
2017-06-23T06:29:00.741Z,100132.59
2017-06-23T06:31:30.504Z,100133.55
2017-06-23T06:34:00.627Z,100141.19
2017-06-23T06:36:30.407Z,100141.52
2017-06-23T06:39:00.124Z,100150.21
2017-06-23T06:41:29.912Z,100153.36
2017-06-23T06:43:59.636Z,100157.94
2017-06-23T06:46:29.382Z,100154.97
2017-06-23T06:48:59.341Z,100156.91
2017-06-23T06:51:29.118Z,100149.19
2017-06-23T06:53:58.822Z,100152.52
2017-06-23T06:56:28.545Z,100156.42
2017-06-23T06:58:58.038Z,100166.14
2017-06-23T07:01:27.773Z,100164.14
2017-06-23T07:03:57.544Z,100171.38
2017-06-23T07:06:27.658Z,100175.28
2017-06-23T07:08:57.537Z,100175.95
2017-06-23T07:11:27.339Z,100172.70
2017-06-23T07:13:57.138Z,100180.22
2017-06-23T07:16:26.936Z,100182.06
2017-06-23T07:18:56.644Z,100189.34
2017-06-23T07:21:26.465Z,100195.08
2017-06-23T07:23:56.202Z,100192.87
2017-06-23T07:26:25.937Z,100197.12
2017-06-23T07:28:55.637Z,100202.47
2017-06-23T07:31:25.442Z,100210.91
2017-06-23T07:33:55.525Z,100205.39
2017-06-23T07:36:25.301Z,100209.79
2017-06-23T07:38:55.371Z,100210.00
2017-06-23T07:41:25.120Z,100208.91
2017-06-23T07:43:54.853Z,100217.84
2017-06-23T07:46:24.579Z,100213.69
2017-06-23T07:48:54.335Z,100215.36
2017-06-23T07:51:24.081Z,100226.39
2017-06-23T07:53:53.816Z,100223.59
2017-06-23T07:56:23.560Z,100224.95
2017-06-23T07:58:53.633Z,100226.25
2017-06-23T08:01:23.397Z,100231.47
2017-06-23T08:03:53.120Z,100220.91
2017-06-23T08:06:23.233Z,100229.58
2017-06-23T08:08:52.933Z,100237.80
2017-06-23T08:11:22.646Z,100240.57
2017-06-23T08:13:52.396Z,100242.31
2017-06-23T08:16:22.144Z,100241.27
2017-06-23T08:18:51.953Z,100235.44
2017-06-23T08:21:21.686Z,100242.47
2017-06-23T08:23:51.431Z,100246.60
2017-06-23T08:26:21.130Z,100239.86
2017-06-23T08:28:51.265Z,100235.09
2017-06-23T08:31:20.982Z,100236.75
2017-06-23T08:33:50.734Z,100240.42
2017-06-23T08:36:20.478Z,100245.91
2017-06-23T08:38:50.202Z,100246.33
2017-06-23T08:41:19.973Z,100242.10
2017-06-23T08:43:49.925Z,100243.30
2017-06-23T08:46:20.015Z,100239.66
2017-06-23T08:48:49.776Z,100245.14
2017-06-23T08:51:19.550Z,100256.23
2017-06-23T08:53:49.275Z,100255.03
2017-06-23T08:56:18.999Z,100264.67
2017-06-23T08:58:48.729Z,100262.58
2017-06-23T09:01:18.484Z,100267.55
2017-06-23T09:03:48.229Z,100267.85
2017-06-23T09:06:17.936Z,100271.08
2017-06-23T09:08:47.728Z,100267.34
2017-06-23T09:11:17.473Z,100266.95
2017-06-23T09:13:47.572Z,100280.16
2017-06-23T09:16:17.315Z,100277.64
2017-06-23T09:18:47.112Z,100278.39
2017-06-23T09:21:16.832Z,100274.14
2017-06-23T09:23:46.548Z,100277.95
2017-06-23T09:26:16.460Z,100274.98
2017-06-23T09:28:46.206Z,100269.38
2017-06-23T09:31:16.344Z,100264.77
2017-06-23T09:33:46.093Z,100257.91
2017-06-23T09:36:15.842Z,100273.91
2017-06-23T09:38:45.573Z,100264.42
2017-06-23T09:41:15.329Z,100262.67
2017-06-23T09:43:45.029Z,100265.05
2017-06-23T09:46:14.758Z,100263.76
2017-06-23T09:48:44.589Z,100264.59
2017-06-23T09:51:14.306Z,100271.37
2017-06-23T09:53:44.030Z,100265.27
2017-06-23T09:56:13.737Z,100268.49
2017-06-23T09:58:43.463Z,100270.62
2017-06-23T10:01:13.169Z,100272.13
2017-06-23T10:03:42.953Z,100268.53
2017-06-23T10:06:12.681Z,100262.23
2017-06-23T10:08:43.304Z,100270.80
2017-06-23T10:11:13.013Z,100270.43
2017-06-23T10:13:42.718Z,100275.36
2017-06-23T10:16:13.306Z,100277.14
2017-06-23T10:18:43.022Z,100268.34
2017-06-23T10:21:12.764Z,100261.86
2017-06-23T10:23:42.611Z,100258.59
2017-06-23T10:26:12.393Z,100254.13
2017-06-23T10:28:42.138Z,100262.80
2017-06-23T10:31:11.922Z,100268.00
2017-06-23T10:33:41.698Z,100255.84
2017-06-23T10:36:11.459Z,100260.63
2017-06-23T10:38:40.883Z,100257.63
2017-06-23T10:41:10.678Z,100260.47
2017-06-23T10:43:40.671Z,100258.91
2017-06-23T10:46:10.530Z,100258.63
2017-06-23T10:48:40.385Z,100250.87
2017-06-23T10:51:10.143Z,100255.55
2017-06-23T10:53:39.907Z,100254.21
2017-06-23T10:56:09.643Z,100255.81
2017-06-23T10:58:39.182Z,100261.14
2017-06-23T11:01:09.778Z,100266.16
2017-06-23T11:03:39.553Z,100248.35
2017-06-23T11:06:09.431Z,100259.33
2017-06-23T11:08:39.137Z,100259.30
2017-06-23T11:11:08.877Z,100264.49
2017-06-23T11:13:38.591Z,100257.53
2017-06-23T11:16:08.833Z,100264.24
2017-06-23T11:18:38.553Z,100262.91
2017-06-23T11:21:08.334Z,100263.18
2017-06-23T11:23:38.063Z,100268.40
2017-06-23T11:26:07.813Z,100275.05
2017-06-23T11:28:37.559Z,100261.75
2017-06-23T11:31:07.290Z,100271.52
2017-06-23T11:33:37.030Z,100273.98
2017-06-23T11:36:06.740Z,100271.77
2017-06-23T11:38:36.472Z,100275.97
2017-06-23T11:41:06.474Z,100273.98
2017-06-23T11:43:36.200Z,100274.77
2017-06-23T11:46:05.902Z,100269.07
2017-06-23T11:48:35.669Z,100268.49
2017-06-23T11:51:05.373Z,100269.07
2017-06-23T11:53:35.115Z,100273.39
2017-06-23T11:56:04.878Z,100278.23
2017-06-23T11:58:34.617Z,100278.34
2017-06-23T12:01:04.354Z,100271.00
2017-06-23T12:03:34.081Z,100275.73
2017-06-23T12:06:03.825Z,100281.16
2017-06-23T12:08:33.538Z,100274.53
2017-06-23T12:11:03.291Z,100281.02
2017-06-23T12:13:33.015Z,100290.38
2017-06-23T12:16:02.716Z,100289.26
2017-06-23T12:18:32.438Z,100282.11
2017-06-23T12:21:02.162Z,100290.85
2017-06-23T12:23:31.883Z,100287.52
2017-06-23T12:26:01.611Z,100301.02
2017-06-23T12:28:31.379Z,100303.14
2017-06-23T12:31:01.084Z,100308.69
2017-06-23T12:33:30.849Z,100305.55
2017-06-23T12:36:00.550Z,100303.59
2017-06-23T12:38:30.250Z,100313.48
2017-06-23T12:40:59.969Z,100301.63
2017-06-23T12:43:30.055Z,100309.11
2017-06-23T12:45:59.878Z,100304.42
2017-06-23T12:48:29.594Z,100308.46
2017-06-23T12:50:59.338Z,100314.27
2017-06-23T12:53:29.063Z,100311.57
2017-06-23T12:55:58.817Z,100314.83
2017-06-23T12:58:28.506Z,100304.06
2017-06-23T13:00:58.204Z,100313.55
2017-06-23T13:03:27.988Z,100298.76
2017-06-23T13:05:57.701Z,100301.28
2017-06-23T13:08:27.496Z,100309.81
2017-06-23T13:10:57.214Z,100303.89
2017-06-23T13:13:27.005Z,100305.53
2017-06-23T13:15:56.735Z,100317.44
2017-06-23T13:18:26.473Z,100301.53
2017-06-23T13:20:56.187Z,100311.22
2017-06-23T13:23:26.354Z,100311.58
2017-06-23T13:25:56.105Z,100299.13
2017-06-23T13:28:25.822Z,100308.52
2017-06-23T13:30:55.577Z,100305.34
2017-06-23T13:33:25.126Z,100308.59
2017-06-23T13:35:54.882Z,100308.50
2017-06-23T13:38:24.590Z,100305.42
2017-06-23T13:40:54.332Z,100298.55
2017-06-23T13:43:24.053Z,100307.81
2017-06-23T13:45:53.809Z,100309.88
2017-06-23T13:48:23.555Z,100299.28
2017-06-23T13:50:53.265Z,100307.54
2017-06-23T13:53:23.017Z,100313.01
2017-06-23T13:55:52.726Z,100300.71
2017-06-23T13:58:22.439Z,100301.90
2017-06-23T14:00:52.143Z,100297.52
2017-06-23T14:03:21.939Z,100301.83
2017-06-23T14:05:51.652Z,100298.11
2017-06-23T14:08:21.381Z,100300.81
2017-06-23T14:10:51.136Z,100308.29
2017-06-23T14:13:20.876Z,100305.59
2017-06-23T14:15:50.614Z,100302.65
2017-06-23T14:18:20.381Z,100306.76
2017-06-23T14:20:50.125Z,100307.59
2017-06-23T14:23:21.429Z,100318.34
2017-06-23T14:25:52.307Z,100308.69
2017-06-23T14:28:22.004Z,100314.99
2017-06-23T14:30:51.749Z,100305.65
2017-06-23T14:33:21.437Z,100306.42
2017-06-23T14:35:51.171Z,100311.45
2017-06-23T14:38:20.876Z,100312.03
2017-06-23T14:40:50.613Z,100309.42
2017-06-23T14:43:20.338Z,100308.13
2017-06-23T14:45:50.050Z,100303.41
2017-06-23T14:48:19.789Z,100314.23
2017-06-23T14:50:49.495Z,100312.06
2017-06-23T14:53:19.229Z,100312.70
2017-06-23T14:55:48.921Z,100313.02
2017-06-23T14:58:18.698Z,100309.42
2017-06-23T15:00:48.398Z,100314.47
2017-06-23T15:03:18.110Z,100305.86
2017-06-23T15:05:47.865Z,100310.27
2017-06-23T15:08:17.619Z,100312.30
2017-06-23T15:10:47.378Z,100312.05
2017-06-23T15:13:17.111Z,100307.73
2017-06-23T15:15:46.837Z,100311.45
2017-06-23T15:18:16.587Z,100313.61
2017-06-23T15:20:46.283Z,100311.11
2017-06-23T15:23:16.015Z,100319.10
2017-06-23T15:25:45.721Z,100315.91
2017-06-23T15:28:15.474Z,100316.91
2017-06-23T15:30:45.185Z,100318.52
2017-06-23T15:33:15.386Z,100317.25
2017-06-23T15:35:45.100Z,100310.78
2017-06-23T15:38:14.818Z,100302.80
2017-06-23T15:40:44.574Z,100316.00
2017-06-23T15:43:14.295Z,100309.11
2017-06-23T15:45:44.024Z,100314.39
2017-06-23T15:48:13.771Z,100306.22
2017-06-23T15:50:43.528Z,100314.89
2017-06-23T15:53:13.258Z,100316.58
2017-06-23T15:55:43.029Z,100315.05
2017-06-23T15:58:12.733Z,100315.00
2017-06-23T16:00:42.439Z,100307.85
2017-06-23T16:03:12.173Z,100310.88
2017-06-23T16:05:41.905Z,100303.48
2017-06-23T16:08:11.649Z,100313.55
2017-06-23T16:10:41.408Z,100316.48
2017-06-23T16:13:11.146Z,100307.56
2017-06-23T16:15:40.852Z,100304.55
2017-06-23T16:18:11.165Z,100313.86
2017-06-23T16:20:40.907Z,100312.28
2017-06-23T16:23:10.681Z,100311.92
2017-06-23T16:25:40.390Z,100311.14
2017-06-23T16:28:10.114Z,100316.00
2017-06-23T16:30:39.871Z,100306.11
2017-06-23T16:33:10.210Z,100303.50
2017-06-23T16:35:39.977Z,100305.02
2017-06-23T16:38:09.685Z,100313.59
2017-06-23T16:40:39.435Z,100312.80
2017-06-23T16:43:09.151Z,100308.14
2017-06-23T16:45:38.886Z,100306.20
2017-06-23T16:48:08.588Z,100308.39
2017-06-23T16:50:38.365Z,100316.42
2017-06-23T16:53:08.062Z,100312.91
2017-06-23T16:55:37.781Z,100314.77
2017-06-23T16:58:07.518Z,100312.80
2017-06-23T17:00:37.232Z,100317.31
2017-06-23T17:03:06.945Z,100320.55
2017-06-23T17:05:36.675Z,100321.47
2017-06-23T17:08:06.464Z,100330.64
2017-06-23T17:10:36.320Z,100329.95
2017-06-23T17:13:06.077Z,100327.36
2017-06-23T17:15:35.781Z,100330.40
2017-06-23T17:18:05.535Z,100329.84
2017-06-23T17:20:35.234Z,100330.47
2017-06-23T17:23:05.012Z,100331.11
2017-06-23T17:25:34.741Z,100334.77
2017-06-23T17:28:04.460Z,100327.97
2017-06-23T17:30:34.211Z,100332.28
2017-06-23T17:33:03.933Z,100329.85
2017-06-23T17:35:33.684Z,100329.22
2017-06-23T17:38:03.442Z,100324.78
2017-06-23T17:40:33.222Z,100331.22
2017-06-23T17:43:02.968Z,100321.23
2017-06-23T17:45:32.682Z,100334.52
2017-06-23T17:48:02.429Z,100328.96
2017-06-23T17:50:32.142Z,100338.42
2017-06-23T17:53:01.885Z,100336.23
2017-06-23T17:55:31.602Z,100342.45
2017-06-23T17:58:01.355Z,100341.92
2017-06-23T18:00:31.075Z,100341.84
2017-06-23T18:03:00.828Z,100349.98
2017-06-23T18:05:30.536Z,100347.09
2017-06-23T18:08:00.243Z,100346.67
2017-06-23T18:10:30.007Z,100343.28
2017-06-23T18:12:59.747Z,100343.08
2017-06-23T18:15:29.473Z,100349.19
2017-06-23T18:17:59.187Z,100350.00
2017-06-23T18:20:28.966Z,100351.27
2017-06-23T18:22:58.681Z,100353.11
2017-06-23T18:25:28.481Z,100357.16
2017-06-23T18:27:58.196Z,100358.23
2017-06-23T18:30:28.004Z,100350.89
2017-06-23T18:32:57.768Z,100345.77
2017-06-23T18:35:27.893Z,100355.16
2017-06-23T18:37:57.454Z,100355.91
2017-06-23T18:40:27.218Z,100360.91
2017-06-23T18:42:56.968Z,100355.86
2017-06-23T18:45:26.721Z,100350.85
2017-06-23T18:47:56.489Z,100349.86
2017-06-23T18:50:26.186Z,100356.03
2017-06-23T18:52:55.894Z,100349.75
2017-06-23T18:55:25.637Z,100363.02
2017-06-23T18:57:55.354Z,100366.35
2017-06-23T19:00:25.091Z,100364.83
2017-06-23T19:02:54.833Z,100363.24
2017-06-23T19:05:24.594Z,100365.38
2017-06-23T19:07:54.302Z,100361.42
2017-06-23T19:10:24.162Z,100365.05
2017-06-23T19:12:53.917Z,100375.23
2017-06-23T19:15:23.649Z,100374.20
2017-06-23T19:17:53.406Z,100384.31
2017-06-23T19:20:23.162Z,100384.02
2017-06-23T19:22:52.939Z,100379.10
2017-06-23T19:25:22.666Z,100380.69
2017-06-23T19:27:52.440Z,100378.12
2017-06-23T19:30:22.184Z,100378.05
2017-06-23T19:32:52.005Z,100380.28
2017-06-23T19:35:21.776Z,100381.29
2017-06-23T19:37:51.285Z,100383.67
2017-06-23T19:40:21.117Z,100390.70
2017-06-23T19:42:50.883Z,100388.45
2017-06-23T19:45:20.670Z,100384.92
2017-06-23T19:47:50.413Z,100391.97
2017-06-23T19:50:20.269Z,100395.70
2017-06-23T19:52:50.048Z,100389.53
2017-06-23T19:55:19.795Z,100392.66
2017-06-23T19:57:49.975Z,100397.39
2017-06-23T20:00:19.717Z,100400.63
2017-06-23T20:02:49.558Z,100402.44
2017-06-23T20:05:19.310Z,100398.09
2017-06-23T20:07:49.234Z,100404.08
2017-06-23T20:10:18.978Z,100404.91
2017-06-23T20:12:48.778Z,100402.72
2017-06-23T20:15:18.533Z,100406.61
2017-06-23T20:17:48.374Z,100398.59
2017-06-23T20:20:18.136Z,100397.73
2017-06-23T20:22:47.907Z,100399.02
2017-06-23T20:25:17.690Z,100399.31
2017-06-23T20:27:47.409Z,100396.42
2017-06-23T20:30:19.040Z,100397.84
2017-06-23T20:32:50.035Z,100404.78
2017-06-23T20:35:19.816Z,100406.56
2017-06-23T20:37:49.867Z,100408.65
2017-06-23T20:40:20.046Z,100409.34
2017-06-23T20:42:49.778Z,100409.63
2017-06-23T20:45:19.895Z,100408.63
2017-06-23T20:47:49.660Z,100403.02
2017-06-23T20:50:19.413Z,100403.20
2017-06-23T20:52:49.205Z,100401.31
2017-06-23T20:55:18.957Z,100403.09
2017-06-23T20:57:49.296Z,100401.06
2017-06-23T21:00:19.725Z,100403.23
2017-06-23T21:02:49.495Z,100398.60
2017-06-23T21:05:19.618Z,100400.13
2017-06-23T21:07:49.357Z,100400.09
2017-06-23T21:10:19.165Z,100395.34
2017-06-23T21:12:48.887Z,100398.79
2017-06-23T21:15:18.683Z,100390.77
2017-06-23T21:17:48.441Z,100389.66
2017-06-23T21:20:18.174Z,100393.03
2017-06-23T21:22:47.946Z,100386.37
2017-06-23T21:25:17.666Z,100386.20
2017-06-23T21:27:47.493Z,100391.45
2017-06-23T21:30:17.221Z,100398.95
2017-06-23T21:32:46.941Z,100401.59
2017-06-23T21:35:16.690Z,100394.22
2017-06-23T21:37:46.436Z,100392.94
2017-06-23T21:40:21.349Z,100397.33
2017-06-23T21:42:51.072Z,100397.12
2017-06-23T21:45:20.805Z,100402.59
2017-06-23T21:47:50.549Z,100403.47
2017-06-23T21:50:20.423Z,100401.81
2017-06-23T21:52:50.137Z,100401.83
2017-06-23T21:55:19.890Z,100407.84
2017-06-23T21:57:49.600Z,100401.40
2017-06-23T22:00:18.977Z,100399.70
2017-06-23T22:02:48.731Z,100407.84
2017-06-23T22:05:18.440Z,100404.80
2017-06-23T22:07:48.174Z,100403.32
2017-06-23T22:10:17.931Z,100402.95
2017-06-23T22:12:48.613Z,100405.36
2017-06-23T22:15:18.368Z,100407.89
2017-06-23T22:17:48.093Z,100407.09
2017-06-23T22:20:17.908Z,100409.92
2017-06-23T22:22:47.653Z,100418.67
2017-06-23T22:25:17.394Z,100416.22
2017-06-23T22:27:47.104Z,100409.70
2017-06-23T22:30:16.889Z,100411.20
2017-06-23T22:32:46.581Z,100411.52
2017-06-23T22:35:16.313Z,100409.59
2017-06-23T22:37:46.056Z,100413.80
2017-06-23T22:40:15.769Z,100413.27
2017-06-23T22:42:45.535Z,100405.78
2017-06-23T22:45:15.254Z,100414.44
2017-06-23T22:47:45.000Z,100413.11
2017-06-23T22:50:14.699Z,100408.14
2017-06-23T22:52:44.438Z,100407.72
2017-06-23T22:55:14.201Z,100408.73
2017-06-23T22:57:43.917Z,100398.97
2017-06-23T23:00:13.870Z,100402.88
2017-06-23T23:02:44.211Z,100398.09
2017-06-23T23:05:13.990Z,100403.73
2017-06-23T23:07:43.717Z,100398.15
2017-06-23T23:10:13.433Z,100394.84
2017-06-23T23:12:44.052Z,100391.46
2017-06-23T23:15:13.771Z,100397.02
2017-06-23T23:17:43.559Z,100393.33
2017-06-23T23:20:13.281Z,100392.34
2017-06-23T23:22:43.053Z,100387.61
2017-06-23T23:25:12.790Z,100386.81
2017-06-23T23:27:42.843Z,100387.98
2017-06-23T23:30:12.591Z,100392.91
2017-06-23T23:32:42.372Z,100390.64
2017-06-23T23:35:12.087Z,100386.28
2017-06-23T23:37:42.668Z,100386.16
2017-06-23T23:40:12.440Z,100383.36
2017-06-23T23:42:42.193Z,100380.10
2017-06-23T23:45:11.920Z,100375.73
2017-06-23T23:47:41.651Z,100370.80
2017-06-23T23:50:11.385Z,100379.05
2017-06-23T23:52:41.128Z,100373.31
2017-06-23T23:55:11.710Z,100370.09
2017-06-23T23:57:41.487Z,100374.20
